createdAt,value
2023-11-08T07:52:35.976Z,98683.00
2023-11-08T07:55:03.742Z,98685.00
2023-11-08T07:57:31.226Z,98688.00
2023-11-08T07:59:58.686Z,98676.00
2023-11-08T08:02:26.092Z,98685.00
2023-11-08T08:04:55.200Z,98688.00
2023-11-08T08:07:22.705Z,98690.00
2023-11-08T08:09:50.159Z,98681.00
2023-11-08T08:12:17.589Z,98686.00
2023-11-08T08:14:45.363Z,98683.00
2023-11-08T08:17:14.053Z,98692.00
2023-11-08T08:19:42.604Z,98697.00
2023-11-08T08:22:10.150Z,98693.00
2023-11-08T08:24:37.713Z,98689.00
2023-11-08T08:27:05.575Z,98696.00
2023-11-08T08:29:33.446Z,98696.00
2023-11-08T08:32:01.011Z,98692.00
2023-11-08T08:34:31.678Z,98702.00
2023-11-08T08:37:00.162Z,98692.00
2023-11-08T08:39:29.493Z,98694.00
2023-11-08T08:41:58.427Z,98690.00
2023-11-08T08:44:26.410Z,98698.00
2023-11-08T08:46:53.842Z,98695.00
2023-11-08T08:49:23.028Z,98693.00
2023-11-08T08:51:51.407Z,98694.00
2023-11-08T08:54:22.800Z,98696.00
2023-11-08T08:56:51.250Z,98705.00
2023-11-08T08:59:18.692Z,98707.00
2023-11-08T09:01:46.350Z,98708.00
2023-11-08T09:04:14.450Z,98713.00
2023-11-08T09:06:42.601Z,98702.00
2023-11-08T09:09:13.623Z,98708.00
2023-11-08T09:11:41.988Z,98713.00
2023-11-08T09:14:10.522Z,98712.00
2023-11-08T09:16:39.783Z,98710.00
2023-11-08T09:19:10.182Z,98686.00
2023-11-08T09:21:39.255Z,98708.00
2023-11-08T09:24:08.305Z,98709.00
2023-11-08T09:26:41.579Z,98702.00
2023-11-08T09:29:09.525Z,98701.00
2023-11-08T09:31:39.969Z,98706.00
2023-11-08T09:34:08.736Z,98696.00
2023-11-08T09:36:40.434Z,98711.00
2023-11-08T09:39:10.961Z,98705.00
2023-11-08T09:41:39.622Z,98710.00
2023-11-08T09:44:09.455Z,98704.00
2023-11-08T09:46:39.444Z,98699.00
2023-11-08T09:49:07.618Z,98703.00
2023-11-08T09:51:36.078Z,98706.00
2023-11-08T09:54:04.775Z,98699.00
2023-11-08T09:56:35.349Z,98697.00
2023-11-08T09:59:03.670Z,98698.00
2023-11-08T10:01:38.119Z,98701.00
2023-11-08T10:04:06.288Z,98702.00
2023-11-08T10:06:36.205Z,98696.00
2023-11-08T10:09:07.360Z,98701.00
2023-11-08T10:11:37.248Z,98696.00
2023-11-08T10:14:04.750Z,98699.00
2023-11-08T10:16:55.266Z,98697.00
2023-11-08T10:19:49.130Z,98708.00
2023-11-08T10:22:24.042Z,98705.00
2023-11-08T10:25:04.438Z,98710.00
2023-11-08T10:27:35.445Z,98696.00
2023-11-08T10:30:22.352Z,98695.00
2023-11-08T10:32:50.037Z,98686.00
2023-11-08T10:35:22.860Z,98666.00
2023-11-08T10:37:51.608Z,98668.00
2023-11-08T10:40:22.434Z,98665.00
2023-11-08T10:42:56.511Z,98663.00
2023-11-08T10:45:25.010Z,98656.00
2023-11-08T10:47:52.871Z,98650.00
2023-11-08T10:50:21.943Z,98654.00
2023-11-08T10:52:49.878Z,98647.00
2023-11-08T10:55:17.669Z,98646.00
2023-11-08T10:58:02.758Z,98655.00
2023-11-08T11:00:32.556Z,98671.00
2023-11-08T11:03:13.156Z,98651.00
2023-11-08T11:05:45.119Z,98660.00
2023-11-08T11:08:20.855Z,98651.00
2023-11-08T11:10:49.327Z,98653.00
2023-11-08T11:13:51.409Z,98630.00
2023-11-08T11:16:34.352Z,98617.00
2023-11-08T11:19:13.564Z,98619.00
2023-11-08T11:21:54.622Z,98617.00
2023-11-08T11:24:34.313Z,98617.00
2023-11-08T11:27:05.076Z,98615.00
2023-11-08T11:29:33.975Z,98625.00
2023-11-08T11:32:05.738Z,98605.00
2023-11-08T11:34:38.246Z,98612.00
2023-11-08T11:37:17.518Z,98607.00
2023-11-08T11:40:09.912Z,98611.00
2023-11-08T11:42:37.722Z,98606.00
2023-11-08T11:45:06.892Z,98599.00
2023-11-08T11:47:38.125Z,98596.00
2023-11-08T11:50:10.934Z,98573.00
2023-11-08T11:52:40.687Z,98592.00
2023-11-08T11:55:11.237Z,98577.00
2023-11-08T11:57:39.387Z,98567.00
2023-11-08T12:00:12.396Z,98582.00
2023-11-08T12:02:40.418Z,98584.00
2023-11-08T12:05:08.819Z,98568.00
2023-11-08T12:07:39.017Z,98558.00
2023-11-08T12:10:13.279Z,98552.00
2023-11-08T12:12:45.641Z,98546.00
2023-11-08T12:15:23.883Z,98549.00
2023-11-08T12:17:55.237Z,98539.00
2023-11-08T12:20:25.787Z,98543.00
2023-11-08T12:22:54.488Z,98541.00
2023-11-08T12:25:22.811Z,98543.00
2023-11-08T12:27:58.187Z,98537.00
2023-11-08T12:30:27.738Z,98540.00
2023-11-08T12:32:58.594Z,98531.00
2023-11-08T12:35:27.313Z,98531.00
2023-11-08T12:38:00.543Z,98525.00
2023-11-08T12:40:29.099Z,98523.00
2023-11-08T12:43:55.891Z,98525.00
2023-11-08T12:46:35.313Z,98524.00
2023-11-08T12:48:38.575Z,98527.00
2023-11-08T12:51:11.939Z,98524.00
2023-11-08T12:53:46.968Z,98518.00
2023-11-08T12:56:14.446Z,98520.00
2023-11-08T12:58:42.878Z,98514.00
2023-11-08T13:01:20.874Z,98512.00
2023-11-08T13:03:48.693Z,98503.00
2023-11-08T13:06:16.209Z,98510.00
2023-11-08T13:08:54.941Z,98502.00
2023-11-08T13:11:22.508Z,98488.00
2023-11-08T13:13:50.057Z,98484.00
2023-11-08T13:16:17.538Z,98490.00
2023-11-08T13:18:45.510Z,98484.00
2023-11-08T13:21:13.872Z,98491.00
2023-11-08T13:24:01.709Z,98478.00
2023-11-08T13:26:28.857Z,98484.00
2023-11-08T13:28:57.243Z,98474.00
2023-11-08T13:31:24.775Z,98469.00
2023-11-08T13:33:52.381Z,98465.00
2023-11-08T13:36:27.082Z,98465.00
2023-11-08T13:38:55.689Z,98460.00
2023-11-08T13:41:23.495Z,98456.00
2023-11-08T13:43:51.063Z,98447.00
2023-11-08T13:46:18.613Z,98449.00
2023-11-08T13:48:46.136Z,98452.00
2023-11-08T13:51:13.706Z,98449.00
2023-11-08T13:53:41.204Z,98457.00
2023-11-08T13:56:08.680Z,98441.00
2023-11-08T13:58:37.496Z,98440.00
2023-11-08T14:01:11.306Z,98444.00
2023-11-08T14:03:40.111Z,98427.00
2023-11-08T14:06:09.521Z,98444.00
2023-11-08T14:08:38.877Z,98439.00
2023-11-08T14:11:06.894Z,98442.00
2023-11-08T14:13:34.894Z,98441.00
2023-11-08T14:16:02.597Z,98437.00
2023-11-08T14:18:30.119Z,98435.00
2023-11-08T14:20:57.940Z,98441.00
2023-11-08T14:23:25.546Z,98432.00
2023-11-08T14:25:53.037Z,98417.00
2023-11-08T14:28:20.832Z,98412.00
2023-11-08T14:30:48.704Z,98411.00
2023-11-08T14:33:18.146Z,98404.00
2023-11-08T14:35:45.898Z,98398.00
2023-11-08T14:38:14.045Z,98392.00
2023-11-08T14:40:41.861Z,98397.00
2023-11-08T14:43:11.097Z,98390.00
2023-11-08T14:45:38.794Z,98391.00
2023-11-08T14:48:07.123Z,98394.00
2023-11-08T14:50:34.987Z,98398.00
2023-11-08T14:53:03.679Z,98396.00
2023-11-08T14:55:31.275Z,98393.00
2023-11-08T14:57:58.807Z,98378.00
2023-11-08T15:00:27.184Z,98384.00
2023-11-08T15:02:57.430Z,98389.00
2023-11-08T15:05:25.052Z,98388.00
2023-11-08T15:09:47.550Z,98385.00
2023-11-08T15:10:40.996Z,98375.00
2023-11-08T15:13:08.567Z,98381.00
2023-11-08T15:15:36.101Z,98373.00
2023-11-08T15:18:03.720Z,98372.00
2023-11-08T15:20:31.199Z,98377.00
2023-11-08T15:22:58.986Z,98369.00
2023-11-08T15:25:26.634Z,98374.00
2023-11-08T15:27:54.349Z,98370.00
2023-11-08T15:30:21.927Z,98366.00
2023-11-08T15:32:49.380Z,98369.00
2023-11-08T15:35:16.994Z,98368.00
2023-11-08T15:37:44.515Z,98364.00
2023-11-08T15:40:14.222Z,98363.00
2023-11-08T15:42:41.828Z,98363.00
2023-11-08T15:45:10.729Z,98365.00
2023-11-08T15:47:38.276Z,98356.00
2023-11-08T15:50:06.591Z,98347.00
2023-11-08T15:52:34.205Z,98346.00
2023-11-08T15:55:01.885Z,98350.00
2023-11-08T15:57:29.426Z,98338.00
2023-11-08T15:59:57.585Z,98335.00
2023-11-08T16:02:25.113Z,98322.00
2023-11-08T16:04:52.704Z,98327.00
2023-11-08T16:07:20.290Z,98326.00
2023-11-08T16:09:47.804Z,98329.00
2023-11-08T16:12:15.296Z,98319.00
2023-11-08T16:14:43.172Z,98317.00
2023-11-08T16:17:10.611Z,98312.00
2023-11-08T16:19:38.162Z,98305.00
2023-11-08T16:22:05.656Z,98308.00
2023-11-08T16:24:33.177Z,98307.00
2023-11-08T16:27:00.798Z,98307.00
2023-11-08T16:29:50.881Z,98312.00
2023-11-08T16:32:35.071Z,98311.00
2023-11-08T16:35:03.236Z,98317.00
2023-11-08T16:37:31.113Z,98313.00
2023-11-08T16:39:58.584Z,98307.00
2023-11-08T16:42:26.964Z,98304.00
2023-11-08T16:44:54.412Z,98297.00
2023-11-08T16:47:23.205Z,98287.00
2023-11-08T16:49:52.032Z,98291.00
2023-11-08T16:52:20.492Z,98295.00
2023-11-08T16:54:47.967Z,98285.00
2023-11-08T16:57:15.499Z,98270.00
2023-11-08T16:59:42.968Z,98286.00
2023-11-08T17:02:10.431Z,98282.00
2023-11-08T17:04:41.558Z,98289.00
2023-11-08T17:07:09.231Z,98287.00
2023-11-08T17:09:38.727Z,98281.00
2023-11-08T17:12:07.696Z,98293.00
2023-11-08T17:14:36.080Z,98280.00
2023-11-08T17:17:03.598Z,98286.00
2023-11-08T17:19:31.111Z,98281.00
2023-11-08T17:21:58.934Z,98281.00
2023-11-08T17:24:27.025Z,98283.00
2023-11-08T17:26:54.593Z,98270.00
2023-11-08T17:29:22.073Z,98267.00
2023-11-08T17:31:52.181Z,98272.00
2023-11-08T17:34:20.066Z,98275.00
2023-11-08T17:36:48.760Z,98272.00
2023-11-08T17:39:16.388Z,98270.00
2023-11-08T17:41:43.830Z,98282.00
2023-11-08T17:44:11.860Z,98286.00
2023-11-08T17:46:39.357Z,98281.00
2023-11-08T17:49:06.959Z,98286.00
2023-11-08T17:51:36.230Z,98274.00
2023-11-08T17:54:04.521Z,98269.00
2023-11-08T17:56:31.980Z,98278.00
2023-11-08T17:58:59.540Z,98279.00
2023-11-08T18:01:27.139Z,98283.00
2023-11-08T18:03:54.880Z,98267.00
2023-11-08T18:06:22.358Z,98268.00
2023-11-08T18:08:49.806Z,98263.00
2023-11-08T18:11:17.358Z,98259.00
2023-11-08T18:13:48.909Z,98266.00
2023-11-08T18:16:16.846Z,98259.00
2023-11-08T18:18:45.731Z,98258.00
2023-11-08T18:21:14.229Z,98254.00
2023-11-08T18:23:42.846Z,98256.00
2023-11-08T18:26:10.483Z,98252.00
2023-11-08T18:28:38.000Z,98258.00
2023-11-08T18:31:05.640Z,98255.00
2023-11-08T18:33:33.118Z,98251.00
2023-11-08T18:36:00.565Z,98247.00
2023-11-08T18:38:29.999Z,98241.00
2023-11-08T18:40:58.909Z,98251.00
2023-11-08T18:43:27.424Z,98250.00
2023-11-08T18:45:56.387Z,98238.00
2023-11-08T18:48:28.472Z,98250.00
2023-11-08T18:50:56.194Z,98242.00
2023-11-08T18:53:25.151Z,98240.00
2023-11-08T18:55:52.641Z,98236.00
2023-11-08T18:58:24.266Z,98232.00
2023-11-08T19:00:54.724Z,98227.00
2023-11-08T19:03:22.249Z,98204.00
2023-11-08T19:05:50.431Z,98207.00
2023-11-08T19:08:18.172Z,98206.00
2023-11-08T19:10:45.848Z,98205.00
2023-11-08T19:13:13.902Z,98198.00
2023-11-08T19:15:41.563Z,98197.00
2023-11-08T19:18:09.457Z,98188.00
2023-11-08T19:20:37.090Z,98190.00
2023-11-08T19:23:12.281Z,98181.00
2023-11-08T19:25:47.999Z,98180.00
2023-11-08T19:28:15.462Z,98178.00
2023-11-08T19:30:43.897Z,98179.00
2023-11-08T19:33:11.459Z,98172.00
2023-11-08T19:35:43.095Z,98178.00
2023-11-08T19:38:10.758Z,98178.00
2023-11-08T19:40:38.407Z,98170.00
2023-11-08T19:43:06.582Z,98174.00
2023-11-08T19:45:36.888Z,98172.00
2023-11-08T19:48:04.865Z,98168.00
2023-11-08T19:50:32.752Z,98167.00
2023-11-08T19:53:00.521Z,98165.00
2023-11-08T19:55:27.995Z,98160.00
2023-11-08T19:57:55.794Z,98156.00
2023-11-08T20:00:23.522Z,98154.00
2023-11-08T20:02:52.785Z,98156.00
2023-11-08T20:05:20.545Z,98145.00
2023-11-08T20:07:49.885Z,98142.00
2023-11-08T20:10:18.561Z,98135.00
2023-11-08T20:12:49.074Z,98137.00
2023-11-08T20:15:17.272Z,98146.00
2023-11-08T20:17:45.088Z,98140.00
2023-11-08T20:20:14.260Z,98130.00
2023-11-08T20:22:42.209Z,98131.00
2023-11-08T20:25:10.806Z,98140.00
2023-11-08T20:27:39.284Z,98101.00
2023-11-08T20:30:08.631Z,98123.00
2023-11-08T20:32:40.669Z,98113.00
2023-11-08T20:35:09.744Z,98120.00
2023-11-08T20:37:38.002Z,98119.00
2023-11-08T20:40:10.296Z,98117.00
2023-11-08T20:42:38.278Z,98113.00
2023-11-08T20:45:07.240Z,98107.00
2023-11-08T20:47:34.960Z,98117.00
2023-11-08T20:50:03.573Z,98115.00
2023-11-08T20:52:31.460Z,98112.00
2023-11-08T20:55:00.486Z,98108.00
